| time (UTC) | temp C | wind direction | speed KPH | gust KPH | rain 1hr cm | rain 24hr cm | rain mn cm | humidity % | barometer mb |
| 20260503204625 | 18 | 215 | 25.7 | 40.2 | 0.00 | 0.00 | 0.00 | 47 | 1002.8 |
| 20260503203725 | 17 | 223 | 25.7 | 41.8 | 0.00 | 0.00 | 0.00 | 49 | 1003.1 |
| 20260503202825 | 18 | 234 | 25.7 | 38.6 | 0.00 | 0.00 | 0.00 | 47 | 1003.3 |
| 20260503201925 | 18 | 241 | 24.1 | 40.2 | 0.00 | 0.00 | 0.00 | 47 | 1003.3 |
| 20260503201025 | 17 | 235 | 24.1 | 40.2 | 0.00 | 0.00 | 0.00 | 46 | 1003.6 |
| 20260503200125 | 17 | 236 | 29.0 | 45.1 | 0.00 | 0.00 | 0.00 | 46 | 1003.6 |
| 20260503195225 | 18 | 244 | 25.7 | 38.6 | 0.00 | 0.00 | 0.00 | 47 | 1003.7 |
| 20260503194325 | 18 | 234 | 30.6 | 46.7 | 0.00 | 0.00 | 0.00 | 45 | 1003.8 |
| 20260503193425 | 17 | 230 | 32.2 | 49.9 | 0.00 | 0.00 | 0.00 | 44 | 1004.0 |
| 20260503192525 | 18 | 226 | 32.2 | 53.1 | 0.00 | 0.00 | 0.00 | 44 | 1003.9 |
| 20260503190725 | 18 | 225 | 29.0 | 46.7 | 0.00 | 0.00 | 0.00 | 44 | 1004.1 |
| 20260503184925 | 17 | 215 | 32.2 | 48.3 | 0.00 | 0.00 | 0.00 | 46 | 1004.3 |
| 20260503184025 | 17 | 228 | 27.4 | 43.5 | 0.00 | 0.00 | 0.00 | 48 | 1004.5 |
| 20260503183125 | 17 | 218 | 29.0 | 46.7 | 0.00 | 0.00 | 0.00 | 48 | 1004.6 |
| 20260503182225 | 17 | 227 | 30.6 | 45.1 | 0.00 | 0.00 | 0.00 | 50 | 1004.8 |
| 20260503181325 | 16 | 226 | 27.4 | 41.8 | 0.00 | 0.00 | 0.00 | 50 | 1005.0 |
| 20260503180425 | 16 | 222 | 25.7 | 43.5 | 0.00 | 0.00 | 0.00 | 52 | 1005.1 |
| 20260503175525 | 16 | 226 | 22.5 | 37.0 | 0.00 | 0.00 | 0.00 | 53 | 1005.4 |
| 20260503174625 | 16 | 212 | 22.5 | 38.6 | 0.00 | 0.00 | 0.00 | 51 | 1005.6 |
| 20260503172825 | 15 | 203 | 32.2 | 46.7 | 0.00 | 0.00 | 0.00 | 53 | 1005.9 |
| 20260503171925 | 15 | 209 | 30.6 | 45.1 | 0.00 | 0.00 | 0.00 | 54 | 1006.1 |
| 20260503150425 | 13 | 241 | 22.5 | 37.0 | 0.00 | 0.00 | 0.00 | 55 | 1007.3 |
| 20260503140125 | 13 | 240 | 25.7 | 37.0 | 0.00 | 0.00 | 0.00 | 58 | 1007.8 |
| 20260503130725 | 11 | 232 | 17.7 | 29.0 | 0.00 | 0.00 | 0.00 | 60 | 1008.4 |
| 20260503110125 | 10 | 243 | 12.9 | 24.1 | 0.00 | 0.00 | 0.00 | 55 | 1008.3 |
| 20260503090425 | 8 | 206 | 8.0 | 12.9 | 0.00 | 0.00 | 0.00 | 59 | 1009.1 |
| 20260503081025 | 8 | 220 | 8.0 | 14.5 | 0.00 | 0.00 | 0.00 | 59 | 1009.5 |
| 20260503080125 | 8 | 221 | 8.0 | 14.5 | 0.00 | 0.00 | 0.00 | 58 | 1009.7 |
| 20260503072525 | 8 | 224 | 11.3 | 17.7 | 0.00 | 0.00 | 0.00 | 58 | 1009.8 |
| 20260503071625 | 8 | 223 | 11.3 | 17.7 | 0.00 | 0.00 | 0.00 | 59 | 1009.8 |
| 20260503070725 | 8 | 218 | 9.7 | 17.7 | 0.00 | 0.00 | 0.00 | 59 | 1009.9 |
| 20260503054625 | 8 | 218 | 9.7 | 16.1 | 0.00 | 0.00 | 0.00 | 58 | 1010.5 |
| 20260503053724 | 8 | 219 | 8.0 | 12.9 | 0.00 | 0.00 | 0.00 | 58 | 1010.6 |
| 20260503051925 | 7 | 219 | 8.0 | 14.5 | 0.00 | 0.00 | 0.00 | 60 | 1010.7 |
| 20260503051025 | 7 | 219 | 6.4 | 9.7 | 0.00 | 0.00 | 0.00 | 61 | 1010.8 |
| 20260503050125 | 7 | 216 | 6.4 | 11.3 | 0.00 | 0.00 | 0.00 | 63 | 1010.8 |
| 20260503045225 | 7 | 210 | 4.8 | 8.0 | 0.00 | 0.00 | 0.00 | 65 | 1010.8 |
| 20260503044325 | 6 | 198 | 3.2 | 4.8 | 0.00 | 0.00 | 0.00 | 68 | 1010.9 |
| 20260503043425 | 6 | 162 | 3.2 | 6.4 | 0.00 | 0.00 | 0.00 | 69 | 1010.9 |
| 20260503042525 | 6 | 149 | 3.2 | 4.8 | 0.00 | 0.00 | 0.00 | 71 | 1011.0 |
| 20260503041625 | 6 | 146 | 3.2 | 3.2 | 0.00 | 0.00 | 0.00 | 72 | 1011.1 |
| 20260503040725 | 6 | 159 | 1.6 | 4.8 | 0.00 | 0.00 | 0.00 | 73 | 1011.1 |
| 20260503035825 | 6 | 159 | 1.6 | 3.2 | 0.00 | 0.00 | 0.00 | 74 | 1011.2 |
| 20260503034925 | 6 | 0 | 0.0 | 1.6 | 0.00 | 0.00 | 0.00 | 73 | 1011.3 |
| 20260503034024 | 6 | 182 | 1.6 | 3.2 | 0.00 | 0.00 | 0.00 | 73 | 1011.4 |
| 20260503033124 | 6 | 167 | 1.6 | 4.8 | 0.00 | 0.00 | 0.00 | 72 | 1011.4 |
| 20260503032225 | 6 | 145 | 3.2 | 6.4 | 0.00 | 0.00 | 0.00 | 73 | 1011.5 |
| 20260503031325 | 6 | 143 | 4.8 | 6.4 | 0.00 | 0.00 | 0.00 | 72 | 1011.7 |
| 20260503030424 | 6 | 139 | 4.8 | 6.4 | 0.00 | 0.00 | 0.00 | 71 | 1011.8 |
| 20260503025524 | 6 | 140 | 4.8 | 6.4 | 0.00 | 0.00 | 0.00 | 70 | 1011.9 |
| 20260503024625 | 6 | 142 | 4.8 | 6.4 | 0.00 | 0.00 | 0.00 | 70 | 1011.8 |
| 20260503023724 | 7 | 143 | 4.8 | 6.4 | 0.00 | 0.00 | 0.00 | 68 | 1011.9 |
| 20260503021024 | 7 | 142 | 8.0 | 12.9 | 0.00 | 0.00 | 0.00 | 65 | 1011.9 |
| 20260503020124 | 7 | 137 | 8.0 | 11.3 | 0.00 | 0.00 | 0.00 | 64 | 1011.9 |
| 20260503015224 | 7 | 136 | 6.4 | 8.0 | 0.00 | 0.00 | 0.00 | 64 | 1011.7 |
| 20260503014324 | 7 | 128 | 4.8 | 6.4 | 0.00 | 0.00 | 0.00 | 63 | 1011.7 |
| 20260503013424 | 8 | 131 | 6.4 | 11.3 | 0.00 | 0.00 | 0.00 | 61 | 1011.6 |
| 20260503012524 | 8 | 126 | 8.0 | 11.3 | 0.00 | 0.00 | 0.00 | 60 | 1011.6 |
| 20260503011624 | 8 | 124 | 8.0 | 12.9 | 0.00 | 0.00 | 0.00 | 59 | 1011.7 |
| 20260503005824 | 9 | 115 | 8.0 | 12.9 | 0.00 | 0.00 | 0.00 | 56 | 1011.7 |
| 20260503004924 | 9 | 118 | 8.0 | 14.5 | 0.00 | 0.00 | 0.00 | 56 | 1011.7 |
| 20260503004024 | 10 | 119 | 9.7 | 16.1 | 0.00 | 0.00 | 0.00 | 55 | 1011.7 |
| 20260503003125 | 10 | 119 | 9.7 | 14.5 | 0.00 | 0.00 | 0.00 | 55 | 1011.8 |
| 20260503002224 | 10 | 109 | 8.0 | 14.5 | 0.00 | 0.00 | 0.00 | 57 | 1011.7 |
| 20260503001324 | 10 | 102 | 8.0 | 14.5 | 0.00 | 0.00 | 0.00 | 56 | 1011.7 |
| 20260503000424 | 10 | 110 | 8.0 | 12.9 | 0.00 | 0.00 | 0.00 | 56 | 1011.7 |
| 20260502235524 | 10 | 103 | 8.0 | 16.1 | 0.00 | 0.00 | 0.00 | 57 | 1011.8 |
| 20260502234624 | 11 | 98 | 6.4 | 14.5 | 0.00 | 0.00 | 0.00 | 55 | 1011.9 |
| 20260502232824 | 10 | 113 | 8.0 | 16.1 | 0.00 | 0.00 | 0.00 | 54 | 1012.1 |
| 20260502230124 | 10 | 100 | 11.3 | 20.9 | 0.00 | 0.00 | 0.00 | 53 | 1012.4 |
| 20260502225224 | 11 | 100 | 8.0 | 16.1 | 0.00 | 0.00 | 0.00 | 55 | 1012.4 |
| 20260502224324 | 10 | 101 | 11.3 | 19.3 | 0.00 | 0.00 | 0.00 | 54 | 1012.6 |
| 20260502223424 | 10 | 106 | 9.7 | 19.3 | 0.00 | 0.00 | 0.00 | 52 | 1012.6 |
| 20260502222524 | 10 | 105 | 9.7 | 19.3 | 0.00 | 0.00 | 0.00 | 51 | 1012.7 |
| 20260502221624 | 10 | 109 | 11.3 | 19.3 | 0.00 | 0.00 | 0.00 | 53 | 1012.7 |
| 20260502220724 | 10 | 97 | 11.3 | 17.7 | 0.00 | 0.00 | 0.00 | 53 | 1012.9 |
| 20260502215824 | 10 | 110 | 11.3 | 17.7 | 0.00 | 0.00 | 0.00 | 52 | 1013.0 |
| 20260502214924 | 10 | 112 | 11.3 | 19.3 | 0.00 | 0.00 | 0.00 | 52 | 1012.9 |
| 20260502214024 | 10 | 102 | 11.3 | 20.9 | 0.00 | 0.00 | 0.00 | 51 | 1012.9 |
| 20260502213124 | 11 | 107 | 11.3 | 20.9 | 0.00 | 0.00 | 0.00 | 50 | 1013.0 |
| 20260502212224 | 11 | 123 | 9.7 | 27.4 | 0.00 | 0.00 | 0.00 | 49 | 1013.0 |
| 20260502211324 | 11 | 114 | 9.7 | 22.5 | 0.00 | 0.00 | 0.00 | 50 | 1013.1 |
| 20260502210424 | 11 | 109 | 9.7 | 19.3 | 0.00 | 0.00 | 0.00 | 49 | 1013.1 |
| 20260502205524 | 11 | 105 | 9.7 | 16.1 | 0.00 | 0.00 | 0.00 | 49 | 1013.4 |